Anshun, Guizhou

8:32 AM CST on August 31, 2015 (GMT +0800)
Guiyang | | Change Station
CLOSE
Current Station
Airport
Location: Guiyang,
Elevation: 3734 ft
Nearby Weather Stations

Elev 3734 ft 26.54 °N, 106.80 °E | Updated 32 minutes ago

Mist
Mist
61 °F
Feels Like 61 °F
N
2
Wind Variable Wind from Variable

Today
High -- | Low -- °F
--% Chance of Precip.
Yesterday
High -- | Low -- °F
Precip. -- in
6:35 AM 7:17 PM
Full, 98% visible
Pressure 29.98 in
Visibility 1.9 miles
Clouds
Dew Point 61 °F
Humidity 100%
Rainfall 0.00 in
Snow Depth Not available.
UV Not available.
Pollen Not available.
Air Quality Not available.
Flu Activity Not available.
METAR ZUGY 310000Z VRB01MPS 3000 BR NSC 16/16 Q1015 NOSIG
Pressure 29.98 in
Visibility 1.9 miles
Clouds
Dew Point 61 °F
Humidity 100%
Rainfall 0.00 in
Snow Depth Not available.
UV Not available.
Pollen Not available.
Air Quality Not available.
Flu Activity Not available.
METAR ZUGY 310000Z VRB01MPS 3000 BR NSC 16/16 Q1015 NOSIG

10-Day Weather Forecast

×

Almanac

Astronomy

Aug. 31, 2015 Rise Set
Actual Time
Civil Twilight
Nautical Twilight
Astronomical Twilight
Moon
Length of Visible Light
Length of Day
Tomorrow will be .
, % of the Moon is Illuminated

Today's Extremes

Country Highs Country Lows

Community

WunderPhotos

Upload Photos

1,851,111 photos uploaded!

WunderBlogs® & News

Nearby

Air Quality

  Air Quality AQ Index Pollutant
Not available.

Snow Depth

Station Depth Elevation

Earthquake Activity

City Distance Mag. Time & Date
Minimum magnitude displayed is 2.5.

Coastal Water Temperatures

Place Temperature

Stations

Nearby Weather Stations

Station Location Temp. Windchill Dew Point Humidity Wind Precip. Elev Updated Type